createdAt,value
2022-12-19T00:01:53.805Z,18.07
2022-12-19T00:05:17.648Z,18.93
2022-12-19T00:08:44.837Z,16.10
2022-12-19T00:12:12.216Z,16.53
2022-12-19T00:15:40.469Z,15.50
2022-12-19T00:19:04.774Z,16.70
2022-12-19T00:22:28.378Z,15.90
2022-12-19T00:25:54.178Z,17.47
2022-12-19T00:29:19.063Z,17.17
2022-12-19T00:32:43.549Z,15.57
2022-12-19T00:36:11.329Z,17.07
2022-12-19T00:39:35.741Z,15.63
2022-12-19T00:43:00.898Z,15.40
2022-12-19T00:46:26.072Z,15.70
2022-12-19T00:49:51.716Z,13.93
2022-12-19T00:53:15.335Z,17.07
2022-12-19T00:56:39.546Z,16.13
2022-12-19T01:00:09.033Z,17.33
2022-12-19T01:03:33.631Z,16.73
2022-12-19T01:06:59.623Z,16.87
2022-12-19T01:10:28.616Z,14.83
2022-12-19T01:13:51.617Z,15.37
2022-12-19T01:17:16.968Z,17.40
2022-12-19T01:20:43.585Z,18.10
2022-12-19T01:24:08.241Z,14.20
2022-12-19T01:27:32.720Z,16.10
2022-12-19T01:30:57.822Z,15.30
2022-12-19T01:34:22.857Z,17.40
2022-12-19T01:37:46.697Z,17.33
2022-12-19T01:41:12.206Z,14.80
2022-12-19T01:44:37.176Z,17.47
2022-12-19T01:48:16.119Z,16.60
2022-12-19T01:51:46.844Z,14.57
2022-12-19T01:55:12.836Z,16.57
2022-12-19T01:58:39.429Z,15.30
2022-12-19T02:02:09.862Z,16.80
2022-12-19T02:05:35.624Z,15.93
2022-12-19T02:09:03.445Z,17.70
2022-12-19T02:12:29.743Z,13.40
2022-12-19T02:15:59.334Z,16.03
2022-12-19T02:20:00.948Z,18.73
2022-12-19T02:24:12.571Z,14.40
2022-12-19T02:28:22.918Z,14.60
2022-12-19T02:31:55.447Z,16.80
2022-12-19T02:35:27.859Z,16.50
2022-12-19T02:38:57.485Z,13.83
2022-12-19T02:42:27.739Z,14.43
2022-12-19T02:45:57.630Z,16.67
2022-12-19T02:49:30.573Z,14.57
2022-12-19T02:52:58.843Z,16.10
2022-12-19T02:56:44.056Z,16.47
2022-12-19T03:00:12.546Z,16.07
2022-12-19T03:03:46.976Z,17.40
2022-12-19T03:07:26.185Z,14.13
2022-12-19T03:10:56.241Z,14.70
2022-12-19T03:14:22.443Z,17.60
2022-12-19T03:17:51.962Z,15.53
2022-12-19T03:21:21.938Z,15.63
2022-12-19T03:24:47.271Z,15.20
2022-12-19T03:28:17.240Z,19.37
2022-12-19T03:31:43.410Z,15.20
2022-12-19T03:35:14.827Z,14.60
2022-12-19T03:38:42.598Z,14.77
2022-12-19T03:42:27.955Z,16.83
2022-12-19T03:45:58.339Z,15.70
2022-12-19T03:49:22.302Z,14.20
2022-12-19T03:52:52.159Z,16.77
2022-12-19T03:56:27.100Z,17.47
2022-12-19T03:59:57.247Z,17.10
2022-12-19T04:03:23.182Z,17.33
2022-12-19T04:06:49.867Z,15.57
2022-12-19T04:10:17.018Z,15.73
2022-12-19T04:13:46.948Z,12.47
2022-12-19T04:17:21.968Z,15.57
2022-12-19T04:20:51.916Z,17.07
2022-12-19T04:24:24.374Z,15.30
2022-12-19T04:27:52.873Z,15.80
2022-12-19T04:31:18.097Z,17.30
2022-12-19T04:34:44.380Z,15.53
2022-12-19T04:38:08.638Z,14.20
2022-12-19T04:41:40.863Z,14.70
2022-12-19T04:45:05.952Z,16.80
2022-12-19T04:48:30.745Z,15.23
2022-12-19T04:51:56.260Z,14.37
2022-12-19T04:55:20.856Z,15.33
2022-12-19T04:58:44.786Z,17.63
2022-12-19T05:02:09.106Z,16.10
2022-12-19T05:05:35.072Z,14.83
2022-12-19T05:09:00.139Z,14.63
2022-12-19T05:12:23.822Z,14.83
2022-12-19T05:15:57.359Z,17.80
2022-12-19T05:19:26.214Z,16.00
2022-12-19T05:22:50.155Z,14.07
2022-12-19T05:26:16.434Z,18.60
2022-12-19T05:29:40.826Z,16.60
2022-12-19T05:33:07.483Z,14.90
2022-12-19T05:36:32.735Z,10.43
2022-12-19T05:39:56.902Z,16.60
2022-12-19T05:43:22.262Z,14.23
2022-12-19T05:46:46.037Z,16.43
2022-12-19T05:50:10.750Z,13.43
2022-12-19T05:53:36.327Z,16.20
2022-12-19T05:57:01.642Z,16.70
2022-12-19T06:00:27.019Z,15.73
2022-12-19T06:03:51.080Z,17.83
2022-12-19T06:07:20.735Z,16.30
2022-12-19T06:10:44.742Z,15.33
2022-12-19T06:14:08.438Z,16.70
2022-12-19T06:17:33.592Z,16.40
2022-12-19T06:20:59.080Z,18.40
2022-12-19T06:24:22.784Z,16.50
2022-12-19T06:27:46.417Z,17.93
2022-12-19T06:31:11.437Z,17.13
2022-12-19T06:38:21.453Z,15.40
2022-12-19T06:42:03.215Z,17.80
2022-12-19T06:45:27.154Z,17.70
2022-12-19T06:48:51.012Z,16.70
2022-12-19T06:52:16.157Z,17.60
2022-12-19T06:55:39.973Z,17.20
2022-12-19T06:59:03.667Z,16.20
2022-12-19T07:02:31.209Z,17.13
2022-12-19T07:05:55.157Z,16.70
2022-12-19T07:09:20.328Z,19.47
2022-12-19T07:12:44.063Z,15.73
2022-12-19T07:16:08.656Z,17.43
2022-12-19T07:19:33.832Z,19.27
2022-12-19T07:22:57.452Z,18.50
2022-12-19T07:26:23.296Z,17.80
2022-12-19T07:29:47.069Z,15.00
2022-12-19T07:33:11.875Z,15.80
2022-12-19T07:36:36.492Z,17.40
2022-12-19T07:40:00.168Z,15.63
2022-12-19T07:43:25.103Z,16.70
2022-12-19T07:46:48.948Z,16.37
2022-12-19T07:50:12.679Z,13.13
2022-12-19T07:53:36.581Z,11.97
2022-12-19T07:57:00.363Z,10.67
2022-12-19T08:00:25.704Z,13.60
2022-12-19T08:03:50.191Z,10.47
2022-12-19T08:07:13.897Z,9.97
2022-12-19T08:10:37.677Z,11.20
2022-12-19T08:14:01.481Z,10.00
2022-12-19T08:17:26.942Z,11.93
2022-12-19T08:20:50.743Z,9.03
2022-12-19T08:24:14.477Z,11.50
2022-12-19T08:27:41.244Z,12.03
2022-12-19T08:31:07.728Z,10.97
2022-12-19T08:34:32.856Z,10.10
2022-12-19T08:37:56.954Z,11.77
2022-12-19T08:41:20.970Z,12.40
2022-12-19T08:44:44.491Z,11.37
2022-12-19T08:48:08.878Z,9.20
2022-12-19T08:51:34.196Z,11.03
2022-12-19T08:54:57.982Z,11.23
2022-12-19T08:58:21.674Z,11.30
2022-12-19T09:01:45.637Z,10.00
2022-12-19T09:06:04.492Z,9.67
2022-12-19T09:08:54.871Z,9.63
2022-12-19T09:12:24.136Z,12.00
2022-12-19T09:15:48.091Z,10.00
2022-12-19T09:19:15.548Z,10.93
2022-12-19T09:22:39.153Z,12.00
2022-12-19T09:26:06.259Z,9.20
2022-12-19T09:29:35.021Z,10.43
2022-12-19T09:33:02.459Z,10.20
2022-12-19T09:36:26.791Z,10.30
2022-12-19T09:39:50.671Z,11.00
2022-12-19T09:43:24.872Z,10.03
2022-12-19T09:46:51.464Z,8.97
2022-12-19T09:50:27.972Z,10.23
2022-12-19T09:54:02.513Z,10.43
2022-12-19T09:57:36.656Z,9.90
2022-12-19T10:01:07.437Z,9.33
2022-12-19T10:04:35.225Z,10.83
2022-12-19T10:08:09.214Z,9.77
2022-12-19T10:12:42.764Z,7.73
2022-12-19T10:15:38.938Z,11.10
2022-12-19T10:19:06.155Z,9.10
2022-12-19T10:22:41.155Z,9.53
2022-12-19T10:26:10.930Z,9.13
2022-12-19T10:29:51.180Z,10.40
2022-12-19T10:33:21.087Z,8.27
2022-12-19T10:37:23.254Z,9.40
2022-12-19T10:40:35.207Z,9.50
2022-12-19T10:44:03.176Z,8.90
2022-12-19T10:47:26.928Z,7.97
2022-12-19T10:50:51.299Z,8.73
2022-12-19T10:54:16.424Z,8.47
2022-12-19T10:57:40.221Z,8.30
2022-12-19T11:01:15.589Z,8.70
2022-12-19T11:04:40.190Z,8.17
2022-12-19T11:08:15.031Z,9.10
2022-12-19T11:15:34.159Z,9.37
2022-12-19T11:19:36.354Z,9.37
2022-12-19T11:29:18.198Z,8.60
2022-12-19T11:29:40.286Z,8.93
2022-12-19T11:29:45.592Z,10.10
2022-12-19T11:34:23.685Z,8.37
2022-12-19T11:37:55.484Z,9.30
2022-12-19T11:41:28.724Z,7.43
2022-12-19T11:45:02.137Z,7.70
2022-12-19T11:48:40.350Z,7.60
2022-12-19T11:52:36.983Z,7.33
2022-12-19T11:56:00.701Z,9.23
2022-12-19T11:59:30.550Z,7.93
2022-12-19T12:03:29.238Z,9.33
2022-12-19T12:06:55.062Z,8.97
2022-12-19T12:13:22.354Z,8.50
2022-12-19T12:23:15.882Z,8.53
2022-12-19T12:25:17.432Z,9.03
2022-12-19T12:31:20.454Z,7.73
2022-12-19T12:31:41.882Z,8.73
2022-12-19T12:31:43.658Z,9.07
2022-12-19T12:35:56.638Z,6.53
2022-12-19T12:42:02.497Z,7.80
2022-12-19T12:45:31.779Z,8.97
2022-12-19T12:48:59.574Z,10.00
2022-12-19T12:52:28.554Z,8.17
2022-12-19T12:55:56.975Z,10.67
2022-12-19T12:59:24.518Z,9.27
2022-12-19T13:02:51.997Z,9.03
2022-12-19T13:06:27.459Z,8.63
2022-12-19T13:10:05.775Z,10.67
2022-12-19T13:13:50.869Z,10.47
2022-12-19T13:17:19.460Z,9.27
2022-12-19T13:20:46.958Z,8.50
2022-12-19T13:24:21.166Z,10.80
2022-12-19T13:27:49.333Z,9.87
2022-12-19T13:31:23.454Z,9.90
2022-12-19T13:35:22.755Z,9.53
2022-12-19T13:40:02.472Z,9.60
2022-12-19T13:43:09.602Z,8.80
2022-12-19T13:46:42.511Z,9.17
2022-12-19T13:50:15.652Z,8.80
2022-12-19T13:53:39.708Z,10.63
2022-12-19T13:57:09.708Z,9.73
2022-12-19T14:00:37.562Z,8.40
2022-12-19T14:04:07.996Z,9.13
2022-12-19T14:07:40.549Z,9.63
2022-12-19T14:11:37.277Z,9.73
2022-12-19T14:15:13.702Z,9.70
2022-12-19T14:18:44.286Z,10.13
2022-12-19T14:22:22.809Z,9.87
2022-12-19T14:28:20.804Z,8.73
2022-12-19T14:30:29.329Z,8.27
2022-12-19T14:33:46.019Z,7.73
2022-12-19T14:39:23.053Z,9.43
2022-12-19T14:41:47.252Z,8.30
2022-12-19T14:54:04.968Z,8.53
2022-12-19T14:54:15.971Z,8.07
2022-12-19T14:54:44.364Z,9.00
2022-12-19T14:57:06.125Z,8.40
2022-12-19T15:01:08.419Z,9.10
2022-12-19T15:04:47.788Z,9.10
2022-12-19T15:08:11.594Z,8.07
2022-12-19T15:13:30.510Z,9.23
2022-12-19T15:15:52.600Z,9.33
2022-12-19T15:19:16.195Z,10.17
2022-12-19T15:22:39.895Z,8.60
2022-12-19T15:26:07.365Z,9.07
2022-12-19T15:29:35.308Z,7.60
2022-12-19T15:32:58.949Z,11.07
2022-12-19T15:36:22.696Z,9.00
2022-12-19T15:39:46.695Z,8.90
2022-12-19T15:43:53.226Z,8.57
2022-12-19T15:47:04.825Z,9.50
2022-12-19T15:50:32.201Z,7.50
2022-12-19T15:54:04.103Z,9.43
2022-12-19T15:57:42.574Z,9.43
2022-12-19T16:01:07.704Z,9.10
2022-12-19T16:04:36.769Z,9.27
2022-12-19T16:08:01.852Z,8.50
2022-12-19T16:11:26.045Z,9.53
2022-12-19T16:14:59.771Z,7.90
2022-12-19T16:18:23.681Z,8.80
2022-12-19T16:21:48.735Z,7.70
2022-12-19T16:25:13.673Z,9.20
2022-12-19T16:28:38.354Z,7.93
2022-12-19T16:32:02.222Z,8.23
2022-12-19T16:36:02.501Z,8.10
2022-12-19T16:39:13.975Z,7.50
2022-12-19T16:42:37.796Z,8.33
2022-12-19T16:46:02.080Z,7.80
2022-12-19T16:49:25.698Z,7.13
2022-12-19T16:52:49.444Z,8.23
2022-12-19T16:56:24.231Z,9.07
2022-12-19T16:59:48.743Z,7.90
2022-12-19T17:03:27.470Z,8.47
2022-12-19T17:06:52.212Z,8.13
2022-12-19T17:10:19.934Z,9.33
2022-12-19T17:13:51.786Z,8.87
2022-12-19T17:17:16.793Z,8.77
2022-12-19T17:20:42.931Z,9.67
2022-12-19T17:24:11.448Z,9.07
2022-12-19T17:27:35.036Z,7.97
2022-12-19T17:31:03.721Z,9.10
2022-12-19T17:34:31.197Z,9.13
2022-12-19T17:37:57.409Z,8.97
2022-12-19T17:41:21.036Z,9.70
2022-12-19T17:44:44.646Z,9.90
2022-12-19T17:48:22.019Z,9.60
2022-12-19T17:51:50.082Z,9.87
2022-12-19T17:55:19.169Z,7.70
2022-12-19T17:58:42.997Z,8.20
2022-12-19T18:02:21.145Z,8.67
2022-12-19T18:05:46.390Z,8.23
2022-12-19T18:09:19.280Z,7.70
2022-12-19T18:12:43.153Z,8.33
2022-12-19T18:16:12.896Z,8.90
2022-12-19T18:19:36.653Z,9.37
2022-12-19T18:23:02.369Z,8.90
2022-12-19T18:26:25.961Z,9.17
2022-12-19T18:29:49.710Z,9.03
2022-12-19T18:33:17.812Z,8.03
2022-12-19T18:36:43.934Z,7.97
2022-12-19T18:40:20.962Z,10.07
2022-12-19T18:43:47.232Z,8.50
2022-12-19T18:47:22.426Z,8.93
2022-12-19T18:50:46.183Z,7.03
2022-12-19T18:54:20.882Z,8.57
2022-12-19T18:57:46.490Z,8.07
2022-12-19T19:01:15.926Z,8.87
2022-12-19T19:04:40.413Z,7.20
2022-12-19T19:08:16.462Z,8.30
2022-12-19T19:11:42.334Z,7.67
2022-12-19T19:15:08.647Z,8.47
2022-12-19T19:18:38.493Z,8.20
2022-12-19T19:22:02.194Z,7.77
2022-12-19T19:25:25.997Z,8.13
2022-12-19T19:28:52.498Z,7.30
2022-12-19T19:32:18.940Z,8.20
2022-12-19T19:35:44.837Z,8.00
2022-12-19T19:39:08.467Z,7.90
2022-12-19T19:42:34.504Z,8.00
2022-12-19T19:46:02.324Z,8.27
2022-12-19T19:49:28.081Z,7.60
2022-12-19T19:52:51.890Z,6.67
2022-12-19T19:56:17.963Z,8.10
2022-12-19T19:59:41.858Z,7.40
2022-12-19T20:03:09.448Z,6.33
2022-12-19T20:06:35.283Z,7.03
2022-12-19T20:09:59.807Z,6.90
2022-12-19T20:13:24.178Z,7.50
2022-12-19T20:16:48.592Z,7.40
2022-12-19T20:20:13.564Z,8.17
2022-12-19T20:23:39.362Z,7.03
2022-12-19T20:27:02.978Z,7.43
2022-12-19T20:30:26.861Z,6.97
2022-12-19T20:33:55.101Z,7.20
2022-12-19T20:37:18.873Z,7.20
2022-12-19T20:40:44.212Z,7.67
2022-12-19T20:44:07.910Z,8.27
2022-12-19T20:47:32.163Z,7.20
2022-12-19T20:50:57.204Z,7.77
2022-12-19T20:54:20.906Z,7.57
2022-12-19T20:57:45.819Z,7.80
2022-12-19T21:01:11.239Z,7.80
2022-12-19T21:04:36.726Z,8.10
2022-12-19T21:08:00.401Z,7.30
2022-12-19T21:11:24.495Z,8.80
2022-12-19T21:14:49.946Z,7.10
2022-12-19T21:18:13.640Z,7.40
2022-12-19T21:21:37.310Z,7.47
2022-12-19T21:25:00.984Z,6.10
2022-12-19T21:28:24.959Z,6.83
2022-12-19T21:31:50.486Z,6.53
2022-12-19T21:35:17.366Z,6.63
2022-12-19T21:38:41.936Z,6.97
2022-12-19T21:42:06.106Z,7.53
2022-12-19T21:45:29.867Z,7.67
2022-12-19T21:48:57.413Z,8.73
2022-12-19T21:52:21.290Z,7.30
2022-12-19T21:55:49.881Z,6.50
2022-12-19T21:59:16.257Z,6.57
2022-12-19T22:02:46.690Z,7.43
2022-12-19T22:06:28.090Z,8.00
2022-12-19T22:09:55.562Z,7.47
2022-12-19T22:13:19.959Z,7.20
2022-12-19T22:16:44.249Z,6.70
2022-12-19T22:20:10.126Z,6.83
2022-12-19T22:23:35.559Z,6.10
2022-12-19T22:27:00.026Z,6.77
2022-12-19T22:30:23.994Z,6.17
2022-12-19T22:33:49.712Z,6.77
2022-12-19T22:37:14.313Z,7.07
2022-12-19T22:40:42.943Z,6.47
2022-12-19T22:44:07.903Z,6.30
2022-12-19T22:47:32.100Z,6.77
2022-12-19T22:50:58.344Z,6.23
2022-12-19T22:54:26.136Z,7.03
2022-12-19T22:57:54.215Z,6.23
2022-12-19T23:01:24.416Z,5.97
2022-12-19T23:04:49.038Z,6.60
2022-12-19T23:08:13.060Z,6.30
2022-12-19T23:11:40.415Z,6.80
2022-12-19T23:15:06.118Z,6.00
2022-12-19T23:18:34.499Z,6.20
2022-12-19T23:21:59.122Z,6.93
2022-12-19T23:25:23.083Z,6.23
2022-12-19T23:28:52.051Z,6.00
2022-12-19T23:32:18.037Z,6.07
2022-12-19T23:35:43.746Z,6.80
2022-12-19T23:39:08.154Z,5.63
2022-12-19T23:42:32.167Z,6.70
2022-12-19T23:45:56.392Z,5.60
2022-12-19T23:49:22.447Z,5.90
2022-12-19T23:52:49.692Z,6.20
2022-12-19T23:56:16.862Z,5.80
2022-12-19T23:59:41.052Z,6.27
